createdAt,value
2019-04-27T00:02:23.123Z,28.10
2019-04-27T00:05:11.211Z,28.10
2019-04-27T00:08:02.952Z,28.20
2019-04-27T00:10:35.433Z,28.20
2019-04-27T00:13:15.408Z,28.20
2019-04-27T00:16:09.890Z,28.30
2019-04-27T00:19:01.703Z,28.30
2019-04-27T00:24:40.392Z,28.40
2019-04-27T00:27:13.424Z,28.40
2019-04-27T00:29:44.993Z,28.30
2019-04-27T00:32:19.683Z,28.30
2019-04-27T00:34:53.257Z,28.40
2019-04-27T00:37:34.009Z,28.50
2019-04-27T00:40:07.609Z,28.50
2019-04-27T00:42:40.660Z,28.50
2019-04-27T00:45:13.534Z,28.60
2019-04-27T00:47:56.552Z,28.70
2019-04-27T00:50:23.413Z,28.70
2019-04-27T00:52:56.436Z,28.90
2019-04-27T00:55:29.648Z,28.90
2019-04-27T00:58:05.604Z,29.00
2019-04-27T01:00:56.215Z,29.10
2019-04-27T01:03:30.895Z,29.20
2019-04-27T01:06:07.005Z,29.30
2019-04-27T01:08:46.125Z,29.30
2019-04-27T01:11:17.870Z,29.40
2019-04-27T01:13:51.296Z,29.50
2019-04-27T01:16:24.728Z,29.50
2019-04-27T01:18:58.834Z,29.70
2019-04-27T01:21:32.410Z,29.80
2019-04-27T01:24:04.918Z,29.90
2019-04-27T01:26:42.474Z,30.00
2019-04-27T01:29:15.565Z,30.10
2019-04-27T01:31:48.661Z,30.10
2019-04-27T01:34:25.246Z,30.20
2019-04-27T01:37:00.779Z,30.20
2019-04-27T01:39:33.348Z,30.30
2019-04-27T01:42:06.110Z,30.30
2019-04-27T01:44:39.730Z,30.40
2019-04-27T01:47:12.667Z,30.40
2019-04-27T01:49:46.766Z,30.40
2019-04-27T01:52:26.086Z,30.50
2019-04-27T01:55:08.416Z,30.50
2019-04-27T01:57:34.006Z,30.50
2019-04-27T02:00:09.717Z,30.60
2019-04-27T02:02:43.745Z,30.60
2019-04-27T02:05:19.005Z,30.70
2019-04-27T02:07:53.654Z,30.80
2019-04-27T02:10:25.330Z,30.80
2019-04-27T02:13:00.166Z,30.90
2019-04-27T02:15:32.632Z,31.00
2019-04-27T02:18:05.230Z,31.10
2019-04-27T02:20:39.514Z,31.10
2019-04-27T02:23:11.760Z,31.20
2019-04-27T02:25:44.194Z,31.10
2019-04-27T02:28:35.112Z,31.20
2019-04-27T02:31:19.300Z,31.20
2019-04-27T02:33:59.554Z,31.30
2019-04-27T02:36:31.571Z,31.30
2019-04-27T02:39:10.045Z,31.40
2019-04-27T02:41:41.324Z,31.50
2019-04-27T02:44:15.398Z,31.60
2019-04-27T02:47:00.291Z,31.60
2019-04-27T02:49:36.530Z,31.70
2019-04-27T02:52:12.305Z,31.80
2019-04-27T02:54:44.948Z,31.90
2019-04-27T02:57:16.441Z,31.90
2019-04-27T02:59:50.277Z,32.00
2019-04-27T03:02:34.114Z,32.00
2019-04-27T03:05:07.595Z,32.00
2019-04-27T03:07:42.755Z,32.10
2019-04-27T03:10:14.288Z,32.10
2019-04-27T03:12:54.028Z,32.30
2019-04-27T03:15:30.569Z,32.30
2019-04-27T03:18:06.326Z,32.40
2019-04-27T03:20:40.343Z,32.40
2019-04-27T03:23:16.723Z,32.40
2019-04-27T03:25:54.004Z,32.50
2019-04-27T03:28:26.271Z,32.60
2019-04-27T03:31:02.300Z,32.70
2019-04-27T03:33:36.888Z,32.90
2019-04-27T03:36:13.181Z,33.00
2019-04-27T03:38:45.826Z,33.20
2019-04-27T03:41:19.983Z,33.40
2019-04-27T03:43:59.376Z,33.40
2019-04-27T03:46:32.650Z,33.60
2019-04-27T03:49:06.713Z,33.60
2019-04-27T03:51:43.759Z,33.80
2019-04-27T03:54:21.955Z,33.80
2019-04-27T03:56:59.007Z,33.90
2019-04-27T03:59:32.812Z,34.10
2019-04-27T04:02:05.196Z,34.20
2019-04-27T04:04:40.600Z,34.30
2019-04-27T04:07:16.896Z,34.40
2019-04-27T04:09:50.267Z,34.50
2019-04-27T04:12:30.352Z,34.70
2019-04-27T04:15:03.071Z,34.80
2019-04-27T04:17:34.675Z,35.00
2019-04-27T04:20:10.186Z,35.30
2019-04-27T04:22:42.784Z,35.30
2019-04-27T04:25:19.878Z,35.30
2019-04-27T04:27:54.805Z,35.30
2019-04-27T04:30:30.031Z,35.30
2019-04-27T04:33:01.872Z,35.40
2019-04-27T04:35:39.492Z,35.60
2019-04-27T04:38:11.145Z,35.70
2019-04-27T04:41:03.772Z,35.90
2019-04-27T04:43:39.794Z,36.10
2019-04-27T04:46:33.484Z,36.30
2019-04-27T04:49:06.472Z,36.40
2019-04-27T04:51:40.154Z,36.50
2019-04-27T04:54:16.013Z,36.60
2019-04-27T04:56:49.399Z,36.70
2019-04-27T04:59:21.407Z,36.70
2019-04-27T05:01:55.924Z,36.80
2019-04-27T05:04:29.035Z,36.80
2019-04-27T05:07:03.006Z,37.00
2019-04-27T05:09:37.334Z,37.10
2019-04-27T05:12:10.282Z,37.20
2019-04-27T05:14:42.992Z,37.30
2019-04-27T05:17:14.488Z,37.50
2019-04-27T05:19:49.003Z,37.60
2019-04-27T05:22:21.357Z,37.80
2019-04-27T05:24:55.224Z,38.00
2019-04-27T05:27:29.018Z,38.10
2019-04-27T05:30:03.988Z,38.00
2019-04-27T05:32:36.826Z,38.00
2019-04-27T05:35:11.519Z,38.00
2019-04-27T05:37:44.499Z,38.00
2019-04-27T05:40:18.962Z,38.00
2019-04-27T05:42:55.184Z,37.80
2019-04-27T05:46:04.743Z,37.60
2019-04-27T05:48:38.935Z,37.60
2019-04-27T05:51:12.234Z,37.50
2019-04-27T05:53:44.985Z,37.40
2019-04-27T05:56:16.422Z,37.30
2019-04-27T05:58:51.271Z,37.30
2019-04-27T06:01:24.008Z,37.30
2019-04-27T06:03:58.831Z,37.20
2019-04-27T06:06:31.392Z,37.20
2019-04-27T06:09:04.065Z,37.20
2019-04-27T06:11:39.841Z,37.10
2019-04-27T06:14:12.501Z,37.20
2019-04-27T06:16:46.611Z,37.20
2019-04-27T06:19:19.328Z,37.30
2019-04-27T06:21:51.061Z,37.30
2019-04-27T06:24:24.931Z,37.30
2019-04-27T06:26:59.522Z,37.40
2019-04-27T06:29:33.656Z,37.50
2019-04-27T06:32:09.009Z,37.50
2019-04-27T06:34:41.270Z,37.70
2019-04-27T06:37:14.556Z,37.80
2019-04-27T06:39:49.462Z,38.00
2019-04-27T06:42:22.480Z,38.30
2019-04-27T06:44:55.864Z,38.50
2019-04-27T06:47:29.497Z,38.60
2019-04-27T06:50:04.526Z,38.60
2019-04-27T06:52:39.103Z,38.70
2019-04-27T06:55:14.811Z,38.70
2019-04-27T06:57:48.924Z,38.80
2019-04-27T07:00:20.586Z,38.80
2019-04-27T07:05:46.006Z,38.70
2019-04-27T07:08:18.739Z,38.70
2019-04-27T07:10:51.322Z,38.70
2019-04-27T07:13:24.257Z,38.80
2019-04-27T07:15:55.817Z,38.70
2019-04-27T07:18:31.057Z,38.70
2019-04-27T07:21:16.169Z,38.90
2019-04-27T07:23:41.213Z,39.00
2019-04-27T07:26:13.855Z,39.10
2019-04-27T07:28:45.778Z,39.20
2019-04-27T07:31:20.154Z,39.20
2019-04-27T07:33:52.759Z,39.10
2019-04-27T07:36:25.324Z,38.90
2019-04-27T07:38:59.647Z,38.70
2019-04-27T07:41:31.677Z,38.60
2019-04-27T07:44:04.836Z,38.50
2019-04-27T07:46:36.405Z,38.50
2019-04-27T07:49:10.904Z,38.60
2019-04-27T07:51:45.008Z,38.60
2019-04-27T07:54:19.241Z,38.60
2019-04-27T07:56:52.225Z,38.60
2019-04-27T07:59:24.923Z,38.60
2019-04-27T08:01:59.115Z,38.70
2019-04-27T08:04:31.616Z,38.70
2019-04-27T08:07:04.221Z,38.50
2019-04-27T08:09:36.949Z,38.40
2019-04-27T08:12:12.149Z,38.30
2019-04-27T08:14:45.286Z,38.30
2019-04-27T08:17:22.386Z,38.20
2019-04-27T08:19:56.903Z,38.10
2019-04-27T08:22:29.632Z,37.90
2019-04-27T08:25:02.281Z,37.80
2019-04-27T08:27:36.357Z,37.80
2019-04-27T08:30:29.420Z,37.80
2019-04-27T08:33:05.969Z,37.90
2019-04-27T08:35:40.660Z,38.00
2019-04-27T08:38:12.305Z,38.00
2019-04-27T08:40:44.893Z,38.10
2019-04-27T08:43:21.646Z,38.20
2019-04-27T08:45:56.647Z,38.30
2019-04-27T08:48:34.662Z,38.30
2019-04-27T08:51:05.027Z,38.30
2019-04-27T08:53:39.601Z,38.30
2019-04-27T08:56:11.942Z,38.20
2019-04-27T08:58:46.489Z,38.10
2019-04-27T09:01:20.781Z,38.10
2019-04-27T09:03:53.019Z,37.90
2019-04-27T09:06:25.207Z,37.80
2019-04-27T09:09:01.946Z,37.60
2019-04-27T09:11:39.227Z,37.50
2019-04-27T09:14:12.326Z,37.40
2019-04-27T09:16:59.532Z,37.30
2019-04-27T09:19:26.005Z,37.30
2019-04-27T09:22:16.550Z,37.30
2019-04-27T09:24:49.389Z,37.20
2019-04-27T09:27:22.249Z,37.10
2019-04-27T09:29:53.914Z,37.00
2019-04-27T09:32:25.522Z,37.00
2019-04-27T09:34:59.529Z,37.00
2019-04-27T09:37:31.029Z,36.90
2019-04-27T09:40:03.579Z,36.90
2019-04-27T09:42:36.281Z,36.90
2019-04-27T09:45:11.850Z,36.80
2019-04-27T09:47:43.298Z,36.80
2019-04-27T09:50:16.211Z,36.80
2019-04-27T09:52:47.907Z,36.70
2019-04-27T09:55:20.683Z,36.80
2019-04-27T09:57:52.448Z,36.80
2019-04-27T10:00:27.513Z,36.80
2019-04-27T10:03:01.108Z,36.70
2019-04-27T10:05:33.593Z,36.60
2019-04-27T10:08:08.473Z,36.60
2019-04-27T10:10:40.197Z,36.60
2019-04-27T10:13:14.921Z,36.60
2019-04-27T10:15:48.185Z,36.60
2019-04-27T10:18:20.499Z,36.50
2019-04-27T10:20:59.672Z,36.50
2019-04-27T10:23:27.178Z,36.40
2019-04-27T10:26:00.140Z,36.40
2019-04-27T10:28:32.788Z,36.40
2019-04-27T10:31:07.314Z,36.40
2019-04-27T10:33:39.969Z,36.30
2019-04-27T10:36:13.129Z,36.30
2019-04-27T10:38:48.133Z,36.20
2019-04-27T10:41:20.365Z,36.10
2019-04-27T10:43:55.001Z,36.20
2019-04-27T10:46:28.561Z,36.10
2019-04-27T10:49:01.540Z,36.10
2019-04-27T10:51:36.247Z,36.00
2019-04-27T10:54:08.741Z,36.00
2019-04-27T10:56:41.526Z,35.90
2019-04-27T10:59:14.061Z,35.90
2019-04-27T11:01:48.358Z,35.90
2019-04-27T11:04:25.956Z,35.90
2019-04-27T11:07:05.491Z,35.80
2019-04-27T11:09:38.715Z,35.80
2019-04-27T11:12:12.962Z,35.80
2019-04-27T11:14:44.542Z,35.70
2019-04-27T11:17:16.412Z,35.70
2019-04-27T11:19:48.946Z,35.60
2019-04-27T11:22:23.270Z,35.60
2019-04-27T11:24:56.424Z,35.60
2019-04-27T11:27:30.382Z,35.50
2019-04-27T11:30:02.073Z,35.50
2019-04-27T11:32:34.817Z,35.40
2019-04-27T11:35:11.152Z,35.40
2019-04-27T11:37:45.596Z,35.30
2019-04-27T11:40:18.234Z,35.20
2019-04-27T11:42:50.786Z,35.10
2019-04-27T11:45:26.486Z,34.90
2019-04-27T11:47:59.960Z,34.70
2019-04-27T11:50:31.458Z,34.60
2019-04-27T11:53:06.201Z,34.50
2019-04-27T11:55:39.032Z,34.30
2019-04-27T11:58:11.733Z,34.20
2019-04-27T12:00:44.315Z,34.10
2019-04-27T12:03:16.607Z,34.00
2019-04-27T12:05:49.286Z,34.00
2019-04-27T12:08:20.909Z,33.90
2019-04-27T12:10:55.250Z,33.80
2019-04-27T12:13:29.853Z,33.70
2019-04-27T12:16:03.943Z,33.70
2019-04-27T12:18:38.408Z,33.60
2019-04-27T12:21:11.078Z,33.50
2019-04-27T12:23:43.821Z,33.40
2019-04-27T12:26:18.342Z,33.40
2019-04-27T12:28:52.892Z,33.40
2019-04-27T12:31:35.934Z,33.30
2019-04-27T12:34:08.904Z,33.20
2019-04-27T12:36:41.629Z,33.20
2019-04-27T12:39:15.690Z,33.10
2019-04-27T12:41:51.324Z,33.10
2019-04-27T12:44:23.617Z,33.00
2019-04-27T12:46:57.728Z,33.00
2019-04-27T12:49:30.215Z,33.00
2019-04-27T12:52:01.618Z,32.90
2019-04-27T12:54:37.569Z,32.80
2019-04-27T12:57:23.284Z,32.80
2019-04-27T13:00:06.529Z,32.80
2019-04-27T13:02:40.985Z,32.80
2019-04-27T13:05:12.446Z,32.80
2019-04-27T13:07:50.585Z,32.80
2019-04-27T13:10:21.954Z,32.70
2019-04-27T13:12:56.081Z,32.80
2019-04-27T13:15:28.437Z,32.80
2019-04-27T13:18:00.186Z,32.80
2019-04-27T13:20:33.090Z,32.80
2019-04-27T13:23:07.150Z,32.80
2019-04-27T13:25:39.689Z,32.80
2019-04-27T13:28:12.672Z,32.80
2019-04-27T13:30:47.450Z,32.80
2019-04-27T13:33:19.783Z,32.80
2019-04-27T13:35:54.260Z,32.80
2019-04-27T13:38:26.957Z,32.70
2019-04-27T13:41:08.240Z,32.60
2019-04-27T13:43:41.739Z,32.60
2019-04-27T13:46:16.069Z,32.60
2019-04-27T13:49:08.269Z,32.60
2019-04-27T13:51:58.144Z,32.50
2019-04-27T13:54:31.572Z,32.50
2019-04-27T13:57:03.037Z,32.40
2019-04-27T13:59:35.374Z,32.30
2019-04-27T14:02:13.569Z,32.30
2019-04-27T14:04:45.701Z,32.30
2019-04-27T14:07:18.328Z,32.30
2019-04-27T14:09:50.492Z,32.30
2019-04-27T14:12:25.546Z,32.30
2019-04-27T14:14:59.941Z,32.30
2019-04-27T14:17:34.014Z,32.30
2019-04-27T14:20:07.895Z,32.20
2019-04-27T14:22:45.360Z,32.10
2019-04-27T14:25:18.144Z,32.20
2019-04-27T14:27:50.755Z,32.10
2019-04-27T14:30:25.615Z,32.10
2019-04-27T14:32:59.690Z,32.10
2019-04-27T14:35:32.095Z,32.10
2019-04-27T14:38:04.825Z,32.10
2019-04-27T14:40:39.096Z,32.10
2019-04-27T14:43:11.588Z,32.10
2019-04-27T14:45:48.642Z,32.10
2019-04-27T14:48:20.657Z,32.20
2019-04-27T14:50:53.520Z,32.20
2019-04-27T14:53:28.211Z,32.20
2019-04-27T14:56:02.245Z,32.10
2019-04-27T14:58:34.875Z,32.10
2019-04-27T15:01:09.562Z,31.90
2019-04-27T15:03:43.948Z,31.80
2019-04-27T15:06:19.650Z,31.70
2019-04-27T15:08:51.437Z,31.70
2019-04-27T15:11:24.714Z,31.70
2019-04-27T15:13:59.549Z,31.60
2019-04-27T15:16:33.265Z,31.50
2019-04-27T15:19:07.101Z,31.40
2019-04-27T15:21:43.304Z,31.50
2019-04-27T15:24:15.604Z,31.40
2019-04-27T15:26:47.293Z,31.40
2019-04-27T15:29:20.512Z,31.40
2019-04-27T15:31:55.941Z,31.30
2019-04-27T15:34:34.042Z,31.20
2019-04-27T15:37:07.868Z,31.20
2019-04-27T15:39:48.943Z,31.10
2019-04-27T15:42:41.625Z,31.10
2019-04-27T15:45:15.854Z,31.00
2019-04-27T15:47:54.190Z,31.00
2019-04-27T15:50:23.569Z,30.90
2019-04-27T15:52:56.695Z,30.90
2019-04-27T15:55:35.088Z,30.80
2019-04-27T15:58:09.641Z,30.70
2019-04-27T16:00:41.887Z,30.70
2019-04-27T16:03:22.713Z,30.70
2019-04-27T16:08:50.205Z,30.60
2019-04-27T16:11:24.917Z,30.60
2019-04-27T16:13:58.763Z,30.60
2019-04-27T16:16:34.381Z,30.50
2019-04-27T16:19:08.847Z,30.50
2019-04-27T16:21:46.944Z,30.50
2019-04-27T16:24:17.017Z,30.40
2019-04-27T16:26:52.202Z,30.40
2019-04-27T16:29:28.050Z,30.40
2019-04-27T16:32:02.806Z,30.40
2019-04-27T16:34:37.844Z,30.40
2019-04-27T16:37:14.063Z,30.40
2019-04-27T16:39:47.864Z,30.50
2019-04-27T16:42:19.181Z,30.40
2019-04-27T16:44:53.246Z,30.40
2019-04-27T16:47:24.925Z,30.40
2019-04-27T16:49:58.592Z,30.30
2019-04-27T16:52:31.340Z,30.30
2019-04-27T16:55:05.664Z,30.30
2019-04-27T16:57:40.078Z,30.20
2019-04-27T17:00:18.228Z,30.20
2019-04-27T17:03:01.369Z,30.20
2019-04-27T17:05:34.677Z,30.20
2019-04-27T17:08:05.936Z,30.20
2019-04-27T17:10:40.094Z,30.20
2019-04-27T17:13:14.650Z,30.20
2019-04-27T17:16:09.197Z,30.20
2019-04-27T17:18:52.727Z,30.20
2019-04-27T17:21:25.370Z,30.30
2019-04-27T17:24:02.842Z,30.30
2019-04-27T17:26:35.513Z,30.30
2019-04-27T17:29:16.061Z,30.30
2019-04-27T17:31:50.487Z,30.30
2019-04-27T17:34:25.117Z,30.30
2019-04-27T17:36:56.693Z,30.30
2019-04-27T17:39:29.822Z,30.30
2019-04-27T17:42:01.419Z,30.20
2019-04-27T17:44:36.015Z,30.20
2019-04-27T17:47:10.651Z,30.10
2019-04-27T17:49:43.448Z,30.10
2019-04-27T17:52:17.162Z,30.10
2019-04-27T17:54:51.620Z,30.10
2019-04-27T17:57:30.113Z,30.10
2019-04-27T18:00:03.374Z,30.10
2019-04-27T18:02:40.040Z,30.00
2019-04-27T18:05:13.174Z,30.10
2019-04-27T18:07:45.670Z,30.00
2019-04-27T18:10:24.253Z,30.00
2019-04-27T18:12:58.154Z,30.00
2019-04-27T18:15:30.863Z,30.00
2019-04-27T18:18:13.378Z,30.00
2019-04-27T18:20:47.818Z,30.00
2019-04-27T18:26:17.423Z,30.00
2019-04-27T18:28:50.564Z,29.90
2019-04-27T18:31:25.572Z,29.90
2019-04-27T18:33:58.836Z,29.90
2019-04-27T18:36:31.781Z,29.90
2019-04-27T18:39:05.498Z,29.90
2019-04-27T18:41:44.360Z,29.90
2019-04-27T18:44:12.109Z,29.80
2019-04-27T18:46:44.644Z,29.80
2019-04-27T18:49:34.123Z,29.80
2019-04-27T18:52:09.549Z,29.80
2019-04-27T18:54:42.128Z,29.80
2019-04-27T18:57:15.318Z,29.80
2019-04-27T18:59:48.997Z,29.80
2019-04-27T19:02:20.640Z,29.70
2019-04-27T19:04:53.643Z,29.70
2019-04-27T19:07:26.381Z,29.70
2019-04-27T19:09:59.184Z,29.70
2019-04-27T19:12:33.324Z,29.60
2019-04-27T19:15:08.153Z,29.60
2019-04-27T19:17:41.071Z,29.60
2019-04-27T19:20:12.666Z,29.50
2019-04-27T19:22:46.005Z,29.50
2019-04-27T19:25:36.575Z,29.50
2019-04-27T19:28:10.702Z,29.40
2019-04-27T19:30:47.552Z,29.40
2019-04-27T19:33:19.759Z,29.40
2019-04-27T19:35:55.712Z,29.40
2019-04-27T19:38:28.957Z,29.40
2019-04-27T19:41:00.434Z,29.40
2019-04-27T19:43:32.851Z,29.40
2019-04-27T19:46:07.381Z,29.40
2019-04-27T19:48:39.057Z,29.40
2019-04-27T19:51:12.789Z,29.40
2019-04-27T19:53:45.373Z,29.40
2019-04-27T19:56:19.318Z,29.40
2019-04-27T19:58:52.359Z,29.30
2019-04-27T20:01:32.001Z,29.30
2019-04-27T20:04:12.923Z,29.30
2019-04-27T20:06:45.639Z,29.30
2019-04-27T20:09:25.661Z,29.30
2019-04-27T20:11:57.006Z,29.30
2019-04-27T20:14:30.838Z,29.20
2019-04-27T20:17:04.298Z,29.20
2019-04-27T20:19:36.735Z,29.20
2019-04-27T20:22:08.152Z,29.20
2019-04-27T20:24:41.475Z,29.20
2019-04-27T20:27:13.804Z,29.10
2019-04-27T20:29:45.348Z,29.10
2019-04-27T20:32:16.937Z,29.10
2019-04-27T20:34:48.540Z,29.10
2019-04-27T20:37:21.392Z,29.10
2019-04-27T20:39:53.826Z,29.00
2019-04-27T20:42:25.277Z,29.00
2019-04-27T20:45:01.601Z,29.00
2019-04-27T20:47:32.411Z,29.00
2019-04-27T20:50:03.974Z,29.00
2019-04-27T20:52:38.614Z,29.00
2019-04-27T20:55:11.333Z,28.90
2019-04-27T20:57:58.465Z,29.00
2019-04-27T21:00:21.944Z,28.90
2019-04-27T21:02:58.628Z,28.90
2019-04-27T21:05:35.361Z,28.90
2019-04-27T21:08:11.762Z,28.90
2019-04-27T21:10:44.211Z,28.90
2019-04-27T21:13:18.690Z,28.90
2019-04-27T21:15:53.162Z,28.80
2019-04-27T21:18:26.276Z,28.80
2019-04-27T21:20:58.894Z,28.80
2019-04-27T21:23:31.654Z,28.80
2019-04-27T21:26:03.948Z,28.80
2019-04-27T21:28:37.810Z,28.80
2019-04-27T21:31:12.462Z,28.80
2019-04-27T21:33:43.268Z,28.80
2019-04-27T21:36:16.125Z,28.80
2019-04-27T21:38:51.262Z,28.80
2019-04-27T21:41:23.275Z,28.70
2019-04-27T21:43:55.037Z,28.80
2019-04-27T21:46:26.471Z,28.70
2019-04-27T21:48:57.997Z,28.70
2019-04-27T21:51:32.432Z,28.70
2019-04-27T21:54:18.608Z,28.70
2019-04-27T21:56:51.690Z,28.60
2019-04-27T21:59:23.025Z,28.70
2019-04-27T22:01:56.092Z,28.60
2019-04-27T22:04:31.487Z,28.60
2019-04-27T22:07:04.418Z,28.60
2019-04-27T22:09:35.721Z,28.60
2019-04-27T22:12:08.468Z,28.60
2019-04-27T22:14:40.744Z,28.50
2019-04-27T22:17:12.528Z,28.50
2019-04-27T22:19:45.028Z,28.50
2019-04-27T22:22:21.065Z,28.50
2019-04-27T22:24:54.381Z,28.50
2019-04-27T22:27:26.011Z,28.50
2019-04-27T22:29:57.537Z,28.40
2019-04-27T22:32:30.629Z,28.40
2019-04-27T22:35:04.723Z,28.40
2019-04-27T22:37:36.300Z,28.40
2019-04-27T22:40:31.564Z,28.40
2019-04-27T22:43:09.398Z,28.30
2019-04-27T22:45:43.666Z,28.30
2019-04-27T22:48:15.242Z,28.20
2019-04-27T22:50:47.966Z,28.20
2019-04-27T22:53:20.466Z,28.20
2019-04-27T22:56:11.444Z,28.20
2019-04-27T22:58:57.355Z,28.20
2019-04-27T23:01:21.920Z,28.20
2019-04-27T23:03:54.483Z,28.20
2019-04-27T23:06:26.960Z,28.20
2019-04-27T23:08:58.650Z,28.10
2019-04-27T23:11:31.365Z,28.10
2019-04-27T23:14:04.985Z,28.20
2019-04-27T23:16:37.741Z,28.10
2019-04-27T23:19:10.881Z,28.10
2019-04-27T23:21:43.852Z,28.10
2019-04-27T23:24:15.402Z,28.10
2019-04-27T23:26:47.949Z,28.10
2019-04-27T23:29:21.965Z,28.10
2019-04-27T23:31:58.695Z,28.10
2019-04-27T23:34:33.437Z,28.10
2019-04-27T23:37:05.888Z,28.10
2019-04-27T23:39:38.566Z,28.20
2019-04-27T23:42:11.586Z,28.20
2019-04-27T23:44:44.548Z,28.20
2019-04-27T23:47:17.100Z,28.20
2019-04-27T23:49:50.862Z,28.20
2019-04-27T23:52:24.793Z,28.30
2019-04-27T23:54:56.681Z,28.30
2019-04-27T23:57:28.592Z,28.40
